createdAt,value
2016-08-11T00:00:27.393Z,973.58
2016-08-11T00:01:27.396Z,973.59
2016-08-11T00:02:27.393Z,973.6
2016-08-11T00:03:27.389Z,973.64
2016-08-11T00:04:27.389Z,973.65
2016-08-11T00:05:27.388Z,973.66
2016-08-11T00:06:27.395Z,973.68
2016-08-11T00:07:27.385Z,973.68
2016-08-11T00:08:27.389Z,973.67
2016-08-11T00:09:27.384Z,973.7
2016-08-11T00:10:27.381Z,973.7
2016-08-11T00:11:27.384Z,973.75
2016-08-11T00:12:27.385Z,973.73
2016-08-11T00:13:27.381Z,973.7
2016-08-11T00:14:27.381Z,973.73
2016-08-11T00:15:27.377Z,973.74
2016-08-11T00:16:27.376Z,973.72
2016-08-11T00:17:27.377Z,973.75
2016-08-11T00:18:27.376Z,973.67
2016-08-11T00:19:27.377Z,973.71
2016-08-11T00:20:27.372Z,973.72
2016-08-11T00:21:27.374Z,973.69
2016-08-11T00:22:27.369Z,973.7
2016-08-11T00:23:27.366Z,973.69
2016-08-11T00:24:27.365Z,973.66
2016-08-11T00:25:27.365Z,973.7
2016-08-11T00:26:27.362Z,973.68
2016-08-11T00:27:27.361Z,973.68
2016-08-11T00:28:27.366Z,973.69
2016-08-11T00:29:27.356Z,973.66
2016-08-11T00:30:27.358Z,973.7
2016-08-11T00:31:27.357Z,973.66
2016-08-11T00:32:27.353Z,973.67
2016-08-11T00:33:27.354Z,973.69
2016-08-11T00:34:27.354Z,973.66
2016-08-11T00:35:27.349Z,973.65
2016-08-11T00:36:27.351Z,973.67
2016-08-11T00:37:27.354Z,973.65
2016-08-11T00:38:27.350Z,973.66
2016-08-11T00:39:27.350Z,973.69
2016-08-11T00:40:27.346Z,973.68
2016-08-11T00:41:27.346Z,973.67
2016-08-11T00:42:27.356Z,973.68
2016-08-11T00:44:27.345Z,973.68
2016-08-11T00:45:27.342Z,973.69
2016-08-11T00:46:27.341Z,973.7
2016-08-11T00:47:27.338Z,973.71
2016-08-11T00:48:27.334Z,973.73
2016-08-11T00:49:27.338Z,973.69
2016-08-11T00:50:27.338Z,973.75
2016-08-11T00:51:27.334Z,973.72
2016-08-11T00:52:27.335Z,973.66
2016-08-11T00:53:27.334Z,973.72
2016-08-11T00:54:27.330Z,973.73
2016-08-11T00:55:27.330Z,973.72
2016-08-11T00:56:27.326Z,973.71
2016-08-11T00:57:27.326Z,973.77
2016-08-11T00:59:27.326Z,973.76
2016-08-11T01:00:27.322Z,973.75
2016-08-11T01:01:27.323Z,973.74
2016-08-11T01:02:27.322Z,973.75
2016-08-11T01:03:27.315Z,973.75
2016-08-11T01:04:27.318Z,973.74
2016-08-11T01:05:27.318Z,973.76
2016-08-11T01:06:27.362Z,973.76
2016-08-11T01:07:27.311Z,973.76
2016-08-11T01:08:27.314Z,973.76
2016-08-11T01:09:27.309Z,973.71
2016-08-11T01:10:27.311Z,973.76
2016-08-11T01:11:27.307Z,973.72
2016-08-11T01:12:27.304Z,973.76
2016-08-11T01:14:27.303Z,973.75
2016-08-11T01:15:27.298Z,973.74
2016-08-11T01:16:27.299Z,973.75
2016-08-11T01:17:27.299Z,973.72
2016-08-11T01:18:27.299Z,973.73
2016-08-11T01:19:27.296Z,973.76
2016-08-11T01:20:27.295Z,973.76
2016-08-11T01:21:27.295Z,973.76
2016-08-11T01:22:27.295Z,973.74
2016-08-11T01:23:27.292Z,973.75
2016-08-11T01:24:27.295Z,973.74
2016-08-11T01:25:27.291Z,973.72
2016-08-11T01:26:27.286Z,973.7
2016-08-11T01:27:27.286Z,973.7
2016-08-11T01:29:27.287Z,973.81
2016-08-11T01:30:27.283Z,973.73
2016-08-11T01:31:27.283Z,973.73
2016-08-11T01:32:27.283Z,973.76
2016-08-11T01:33:27.283Z,973.79
2016-08-11T01:34:27.280Z,973.79
2016-08-11T01:35:27.280Z,973.79
2016-08-11T01:36:27.279Z,973.78
2016-08-11T01:37:27.272Z,973.77
2016-08-11T01:38:27.271Z,973.79
2016-08-11T01:39:27.275Z,973.79
2016-08-11T01:40:27.267Z,973.79
2016-08-11T01:41:27.273Z,973.78
2016-08-11T01:42:27.267Z,973.81
2016-08-11T01:44:27.264Z,973.85
2016-08-11T01:45:27.264Z,973.87
2016-08-11T01:46:27.263Z,973.83
2016-08-11T01:47:27.264Z,973.83
2016-08-11T01:48:27.263Z,973.86
2016-08-11T01:49:27.264Z,973.89
2016-08-11T01:50:27.259Z,973.88
2016-08-11T01:51:27.259Z,973.86
2016-08-11T01:52:27.255Z,973.88
2016-08-11T01:53:27.255Z,973.88
2016-08-11T01:54:27.255Z,973.86
2016-08-11T01:55:27.248Z,973.89
2016-08-11T01:56:27.248Z,973.93
2016-08-11T01:57:27.247Z,973.9
2016-08-11T01:58:27.247Z,973.92
2016-08-11T01:59:27.247Z,973.93
2016-08-11T02:00:27.245Z,973.92
2016-08-11T02:01:27.244Z,973.91
2016-08-11T02:02:27.243Z,973.9
2016-08-11T02:03:27.240Z,973.93
2016-08-11T02:04:27.240Z,973.94
2016-08-11T02:05:27.241Z,973.91
2016-08-11T02:06:27.240Z,973.88
2016-08-11T02:07:27.240Z,973.89
2016-08-11T02:08:27.236Z,973.94
2016-08-11T02:09:27.236Z,973.89
2016-08-11T02:10:27.228Z,973.9
2016-08-11T02:11:27.228Z,973.9
2016-08-11T02:12:27.228Z,973.88
2016-08-11T02:13:27.228Z,973.94
2016-08-11T02:14:27.224Z,973.93
2016-08-11T02:15:27.225Z,973.95
2016-08-11T02:16:27.224Z,973.95
2016-08-11T02:17:27.224Z,973.94
2016-08-11T02:18:27.220Z,973.9
2016-08-11T02:19:27.225Z,973.92
2016-08-11T02:20:27.220Z,973.94
2016-08-11T02:21:27.222Z,973.91
2016-08-11T02:22:27.213Z,973.9
2016-08-11T02:23:27.217Z,973.9
2016-08-11T02:24:27.213Z,973.89
2016-08-11T02:25:27.209Z,973.88
2016-08-11T02:26:27.209Z,973.86
2016-08-11T02:27:27.209Z,973.88
2016-08-11T02:28:27.205Z,973.9
2016-08-11T02:29:27.205Z,973.87
2016-08-11T02:30:27.205Z,973.85
2016-08-11T02:31:27.209Z,973.85
2016-08-11T02:32:27.204Z,973.88
2016-08-11T02:33:27.205Z,973.86
2016-08-11T02:34:27.198Z,973.88
2016-08-11T02:35:27.202Z,973.86
2016-08-11T02:36:27.197Z,973.84
2016-08-11T02:37:27.194Z,973.85
2016-08-11T02:38:27.194Z,973.88
2016-08-11T02:39:27.194Z,973.82
2016-08-11T02:40:27.189Z,973.85
2016-08-11T02:41:27.190Z,973.82
2016-08-11T02:42:27.195Z,973.83
2016-08-11T02:43:27.189Z,973.85
2016-08-11T02:44:27.190Z,973.82
2016-08-11T02:45:27.189Z,973.79
2016-08-11T02:46:27.185Z,973.82
2016-08-11T02:47:27.183Z,973.82
2016-08-11T02:48:27.189Z,973.78
2016-08-11T02:49:27.178Z,973.78
2016-08-11T02:50:27.178Z,973.8
2016-08-11T02:51:27.185Z,973.82
2016-08-11T02:52:27.178Z,973.8
2016-08-11T02:53:27.178Z,973.8
2016-08-11T02:54:27.178Z,973.8
2016-08-11T02:55:27.174Z,973.83
2016-08-11T02:56:27.174Z,973.81
2016-08-11T02:57:27.174Z,973.89
2016-08-11T02:58:27.166Z,973.86
2016-08-11T02:59:27.167Z,973.89
2016-08-11T03:00:27.167Z,973.89
2016-08-11T03:01:27.162Z,973.88
2016-08-11T03:02:27.162Z,973.88
2016-08-11T03:03:27.163Z,973.89
2016-08-11T03:04:27.166Z,973.89
2016-08-11T03:05:27.162Z,973.91
2016-08-11T03:06:27.258Z,973.92
2016-08-11T03:07:27.154Z,973.88
2016-08-11T03:08:27.155Z,973.93
2016-08-11T03:09:27.151Z,973.91
2016-08-11T03:10:27.154Z,973.95
2016-08-11T03:11:27.150Z,973.93
2016-08-11T03:12:27.150Z,973.93
2016-08-11T03:13:27.148Z,973.92
2016-08-11T03:14:27.150Z,973.9
2016-08-11T03:15:27.143Z,973.93
2016-08-11T03:16:27.143Z,973.92
2016-08-11T03:17:27.144Z,973.92
2016-08-11T03:18:27.138Z,973.96
2016-08-11T03:19:27.138Z,973.97
2016-08-11T03:20:27.139Z,973.97
2016-08-11T03:21:27.143Z,973.93
2016-08-11T03:22:27.138Z,973.95
2016-08-11T03:23:27.138Z,973.95
2016-08-11T03:24:27.131Z,973.98
2016-08-11T03:25:27.133Z,974.01
2016-08-11T03:26:27.131Z,973.93
2016-08-11T03:27:27.131Z,973.96
2016-08-11T03:28:27.131Z,973.99
2016-08-11T03:29:27.131Z,973.99
2016-08-11T03:30:27.127Z,974.04
2016-08-11T03:31:27.124Z,974.04
2016-08-11T03:32:27.124Z,974.05
2016-08-11T03:33:27.119Z,974.06
2016-08-11T03:34:27.118Z,974.04
2016-08-11T03:35:27.123Z,974.04
2016-08-11T03:36:27.119Z,974.05
2016-08-11T03:37:27.119Z,974.06
2016-08-11T03:38:27.112Z,974.09
2016-08-11T03:39:27.111Z,974.07
2016-08-11T03:40:27.111Z,974.05
2016-08-11T03:41:27.107Z,974.04
2016-08-11T03:42:27.112Z,974.01
2016-08-11T03:43:27.111Z,974.03
2016-08-11T03:44:27.108Z,974.03
2016-08-11T03:45:27.104Z,974
2016-08-11T03:46:27.107Z,974.02
2016-08-11T03:47:27.100Z,974.06
2016-08-11T03:48:27.101Z,974.05
2016-08-11T03:49:27.100Z,974.06
2016-08-11T03:50:27.096Z,974.11
2016-08-11T03:51:27.099Z,974.09
2016-08-11T03:52:27.092Z,974.08
2016-08-11T03:53:27.091Z,974.03
2016-08-11T03:54:27.092Z,974.06
2016-08-11T03:55:27.096Z,974.03
2016-08-11T03:56:27.092Z,974.03
2016-08-11T03:57:27.091Z,974.06
2016-08-11T03:58:27.091Z,974.08
2016-08-11T03:59:27.084Z,974.08
2016-08-11T04:00:27.084Z,974.14
2016-08-11T04:01:27.080Z,974.09
2016-08-11T04:02:27.080Z,974.11
2016-08-11T04:03:27.084Z,974.14
2016-08-11T04:04:27.080Z,974.15
2016-08-11T04:05:27.076Z,974.18
2016-08-11T04:06:27.076Z,974.15
2016-08-11T04:07:27.073Z,974.16
2016-08-11T04:08:27.076Z,974.15
2016-08-11T04:09:27.072Z,974.1
2016-08-11T04:10:27.072Z,974.12
2016-08-11T04:11:27.069Z,974.13
2016-08-11T04:12:27.068Z,974.16
2016-08-11T04:13:27.067Z,974.18
2016-08-11T04:14:27.063Z,974.14
2016-08-11T04:15:27.063Z,974.11
2016-08-11T04:16:27.064Z,974.16
2016-08-11T04:17:27.061Z,974.19
2016-08-11T04:18:27.056Z,974.18
2016-08-11T04:19:27.060Z,974.17
2016-08-11T04:20:27.061Z,974.18
2016-08-11T04:21:27.053Z,974.19
2016-08-11T04:22:27.054Z,974.23
2016-08-11T04:23:27.048Z,974.23
2016-08-11T04:24:27.053Z,974.23
2016-08-11T04:25:27.049Z,974.23
2016-08-11T04:26:27.049Z,974.25
2016-08-11T04:27:27.049Z,974.22
2016-08-11T04:28:27.052Z,974.28
2016-08-11T04:29:27.046Z,974.28
2016-08-11T04:30:27.045Z,974.32
2016-08-11T04:31:27.041Z,974.3
2016-08-11T04:32:27.037Z,974.31
2016-08-11T04:33:27.038Z,974.33
2016-08-11T04:34:27.037Z,974.35
2016-08-11T04:35:27.036Z,974.36
2016-08-11T04:36:27.033Z,974.4
2016-08-11T04:37:27.033Z,974.37
2016-08-11T04:38:27.034Z,974.39
2016-08-11T04:39:27.034Z,974.39
2016-08-11T04:40:27.030Z,974.4
2016-08-11T04:41:27.030Z,974.42
2016-08-11T04:42:27.027Z,974.46
2016-08-11T04:43:27.026Z,974.44
2016-08-11T04:44:27.026Z,974.46
2016-08-11T04:45:27.022Z,974.47
2016-08-11T04:46:27.023Z,974.48
2016-08-11T04:47:27.019Z,974.51
2016-08-11T04:48:27.018Z,974.48
2016-08-11T04:49:27.018Z,974.48
2016-08-11T04:50:27.018Z,974.51
2016-08-11T04:51:27.015Z,974.54
2016-08-11T04:52:27.015Z,974.54
2016-08-11T04:53:27.010Z,974.52
2016-08-11T04:54:27.011Z,974.52
2016-08-11T04:55:27.010Z,974.55
2016-08-11T04:56:27.011Z,974.57
2016-08-11T04:57:27.007Z,974.55
2016-08-11T04:58:27.007Z,974.55
2016-08-11T04:59:27.003Z,974.59
2016-08-11T05:00:27.002Z,974.55
2016-08-11T05:01:27.002Z,974.55
2016-08-11T05:02:26.998Z,974.57
2016-08-11T05:03:26.999Z,974.59
2016-08-11T05:04:26.998Z,974.54
2016-08-11T05:05:26.995Z,974.56
2016-08-11T05:06:26.994Z,974.57
2016-08-11T05:07:26.995Z,974.61
2016-08-11T05:08:26.991Z,974.59
2016-08-11T05:09:26.991Z,974.56
2016-08-11T05:10:26.992Z,974.56
2016-08-11T05:11:26.987Z,974.57
2016-08-11T05:12:26.987Z,974.59
2016-08-11T05:13:26.983Z,974.59
2016-08-11T05:14:26.983Z,974.6
2016-08-11T05:15:26.983Z,974.58
2016-08-11T05:16:26.980Z,974.62
2016-08-11T05:17:26.979Z,974.62
2016-08-11T05:18:26.979Z,974.64
2016-08-11T05:19:26.979Z,974.62
2016-08-11T05:20:26.975Z,974.66
2016-08-11T05:21:26.975Z,974.67
2016-08-11T05:22:26.975Z,974.67
2016-08-11T05:23:26.974Z,974.67
2016-08-11T05:24:26.971Z,974.67
2016-08-11T05:25:26.971Z,974.66
2016-08-11T05:26:26.968Z,974.66
2016-08-11T05:27:26.968Z,974.72
2016-08-11T05:28:26.967Z,974.74
2016-08-11T05:29:26.963Z,974.74
2016-08-11T05:30:26.963Z,974.79
2016-08-11T05:31:26.964Z,974.76
2016-08-11T05:32:26.960Z,974.75
2016-08-11T05:33:26.959Z,974.74
2016-08-11T05:34:26.959Z,974.75
2016-08-11T05:35:26.955Z,974.77
2016-08-11T05:36:26.955Z,974.75
2016-08-11T05:37:26.955Z,974.75
2016-08-11T05:38:26.951Z,974.75
2016-08-11T05:39:26.951Z,974.77
2016-08-11T05:40:26.952Z,974.77
2016-08-11T05:41:26.952Z,974.78
2016-08-11T05:42:26.947Z,974.79
2016-08-11T05:43:26.948Z,974.79
2016-08-11T05:44:26.949Z,974.77
2016-08-11T05:45:26.948Z,974.78
2016-08-11T05:46:26.949Z,974.75
2016-08-11T05:47:26.943Z,974.75
2016-08-11T05:48:26.947Z,974.76
2016-08-11T05:49:26.940Z,974.78
2016-08-11T05:50:26.940Z,974.75
2016-08-11T05:51:26.940Z,974.75
2016-08-11T05:52:26.940Z,974.8
2016-08-11T05:53:26.935Z,974.77
2016-08-11T05:54:26.936Z,974.79
2016-08-11T05:55:26.937Z,974.8
2016-08-11T05:56:26.936Z,974.8
2016-08-11T05:57:26.932Z,974.82
2016-08-11T05:58:26.943Z,974.8
2016-08-11T05:59:26.933Z,974.77
2016-08-11T06:00:26.933Z,974.82
2016-08-11T06:01:26.929Z,974.8
2016-08-11T06:02:26.929Z,974.8
2016-08-11T06:03:26.928Z,974.81
2016-08-11T06:04:26.929Z,974.81
2016-08-11T06:05:27.076Z,974.82
2016-08-11T06:06:26.929Z,974.81
2016-08-11T06:07:26.928Z,974.85
2016-08-11T06:08:26.924Z,974.9
2016-08-11T06:09:26.924Z,974.84
2016-08-11T06:10:26.924Z,974.82
2016-08-11T06:11:26.925Z,974.81
2016-08-11T06:12:26.926Z,974.89
2016-08-11T06:13:26.925Z,974.9
2016-08-11T06:14:26.926Z,974.9
2016-08-11T06:15:26.924Z,974.95
2016-08-11T06:16:26.924Z,974.91
2016-08-11T06:17:26.929Z,974.92
2016-08-11T06:18:26.929Z,974.91
2016-08-11T06:19:26.928Z,974.92
2016-08-11T06:20:26.930Z,974.9
2016-08-11T06:21:26.932Z,974.94
2016-08-11T06:22:26.933Z,974.92
2016-08-11T06:23:26.933Z,974.97
2016-08-11T06:24:26.937Z,975.02
2016-08-11T06:25:26.937Z,974.98
2016-08-11T06:26:26.943Z,974.98
2016-08-11T06:27:26.942Z,974.95
2016-08-11T06:28:26.944Z,974.99
2016-08-11T06:29:26.948Z,974.97
2016-08-11T06:30:26.949Z,974.97
2016-08-11T06:31:26.954Z,974.97
2016-08-11T06:32:26.957Z,974.96
2016-08-11T06:33:26.961Z,974.95
2016-08-11T06:34:26.962Z,974.95
2016-08-11T06:35:26.966Z,974.97
2016-08-11T06:36:26.970Z,974.96
2016-08-11T06:37:26.974Z,974.95
2016-08-11T06:38:26.978Z,974.92
2016-08-11T06:39:26.982Z,974.98
2016-08-11T06:40:26.982Z,974.99
2016-08-11T06:41:26.985Z,975.03
2016-08-11T06:42:26.994Z,975.03
2016-08-11T06:43:26.998Z,975.07
2016-08-11T06:44:26.997Z,975.08
2016-08-11T06:45:27.006Z,975.11
2016-08-11T06:46:27.010Z,975.14
2016-08-11T06:47:27.013Z,975.14
2016-08-11T06:48:27.017Z,975.16
2016-08-11T06:49:27.022Z,975.15
2016-08-11T06:50:27.033Z,975.16
2016-08-11T06:51:27.030Z,975.19
2016-08-11T06:52:27.038Z,975.21
2016-08-11T06:53:27.042Z,975.21
2016-08-11T06:54:27.047Z,975.16
2016-08-11T06:55:27.051Z,975.16
2016-08-11T06:56:27.065Z,975.2
2016-08-11T06:57:27.063Z,975.23
2016-08-11T06:58:27.075Z,975.22
2016-08-11T06:59:27.074Z,975.19
2016-08-11T07:00:27.078Z,975.17
2016-08-11T07:01:27.082Z,975.17
2016-08-11T07:02:27.091Z,975.21
2016-08-11T07:03:27.095Z,975.19
2016-08-11T07:04:27.102Z,975.2
2016-08-11T07:05:27.107Z,975.2
2016-08-11T07:06:27.111Z,975.18
2016-08-11T07:07:27.119Z,975.2
2016-08-11T07:08:27.127Z,975.19
2016-08-11T07:09:27.132Z,975.18
2016-08-11T07:10:27.135Z,975.19
2016-08-11T07:11:27.143Z,975.16
2016-08-11T07:12:27.150Z,975.14
2016-08-11T07:13:27.155Z,975.16
2016-08-11T07:14:27.163Z,975.12
2016-08-11T07:15:27.168Z,975.15
2016-08-11T07:16:27.180Z,975.15
2016-08-11T07:17:27.179Z,975.18
2016-08-11T07:18:27.187Z,975.15
2016-08-11T07:19:27.195Z,975.19
2016-08-11T07:20:27.208Z,975.14
2016-08-11T07:21:27.208Z,975.13
2016-08-11T07:22:27.215Z,975.17
2016-08-11T07:23:27.224Z,975.14
2016-08-11T07:24:27.227Z,975.19
2016-08-11T07:25:27.241Z,975.22
2016-08-11T07:26:27.244Z,975.2
2016-08-11T07:27:27.252Z,975.19
2016-08-11T07:28:27.256Z,975.2
2016-08-11T07:30:27.276Z,975.19
2016-08-11T07:31:27.279Z,975.2
2016-08-11T07:32:27.287Z,975.2
2016-08-11T07:33:27.292Z,975.21
2016-08-11T07:34:27.300Z,975.23
2016-08-11T07:35:27.308Z,975.22
2016-08-11T07:36:27.315Z,975.23
2016-08-11T07:37:27.324Z,975.21
2016-08-11T07:38:27.339Z,975.22
2016-08-11T07:39:27.339Z,975.25
2016-08-11T07:40:27.349Z,975.24
2016-08-11T07:41:27.356Z,975.25
2016-08-11T07:42:27.361Z,975.22
2016-08-11T07:43:27.367Z,975.26
2016-08-11T07:45:27.384Z,975.23
2016-08-11T07:46:27.392Z,975.26
2016-08-11T07:47:27.400Z,975.26
2016-08-11T07:48:27.409Z,975.27
2016-08-11T07:49:27.416Z,975.26
2016-08-11T07:50:27.424Z,975.31
2016-08-11T07:51:27.433Z,975.25
2016-08-11T07:52:27.440Z,975.29
2016-08-11T07:53:27.512Z,975.3
2016-08-11T07:54:27.456Z,975.19
2016-08-11T07:55:27.465Z,975.25
2016-08-11T07:56:27.476Z,975.29
2016-08-11T07:57:27.481Z,975.31
2016-08-11T07:58:27.489Z,975.33
2016-08-11T08:00:27.509Z,975.32
2016-08-11T08:01:27.517Z,975.2
2016-08-11T08:02:27.526Z,975.27
2016-08-11T08:03:27.532Z,975.3
2016-08-11T08:04:27.541Z,975.31
2016-08-11T08:05:27.549Z,975.3
2016-08-11T08:06:27.557Z,975.38
2016-08-11T08:07:27.565Z,975.35
2016-08-11T08:08:27.574Z,975.34
2016-08-11T08:09:27.580Z,975.41
2016-08-11T08:10:27.590Z,975.37
2016-08-11T08:11:27.601Z,975.25
2016-08-11T08:12:27.609Z,975.27
2016-08-11T08:13:27.618Z,975.26
2016-08-11T08:15:27.633Z,975.27
2016-08-11T08:16:27.642Z,975.28
2016-08-11T08:17:27.650Z,975.31
2016-08-11T08:18:27.657Z,975.53
2016-08-11T08:19:27.661Z,975.54
2016-08-11T08:20:27.670Z,975.51
2016-08-11T08:21:27.677Z,975.52
2016-08-11T08:22:27.685Z,975.57
2016-08-11T08:23:27.705Z,975.59
2016-08-11T08:24:27.701Z,975.57
2016-08-11T08:25:27.709Z,975.59
2016-08-11T08:26:27.718Z,975.65
2016-08-11T08:27:27.725Z,975.74
2016-08-11T08:28:27.735Z,975.7
2016-08-11T08:30:27.745Z,975.75
2016-08-11T08:31:27.754Z,975.76
2016-08-11T08:32:27.761Z,975.82
2016-08-11T08:33:27.770Z,975.82
2016-08-11T08:34:27.778Z,975.79
2016-08-11T08:35:27.785Z,975.68
2016-08-11T08:36:27.794Z,975.46
2016-08-11T08:37:27.801Z,975.31
2016-08-11T08:38:27.810Z,975.28
2016-08-11T08:39:27.818Z,975.3
2016-08-11T08:40:27.826Z,975.3
2016-08-11T08:41:27.835Z,975.26
2016-08-11T08:42:27.842Z,975.24
2016-08-11T08:43:27.850Z,975.25
2016-08-11T08:45:27.863Z,975.23
2016-08-11T08:46:27.870Z,975.23
2016-08-11T08:47:27.879Z,975.26
2016-08-11T08:48:27.887Z,975.24
2016-08-11T08:49:27.899Z,975.25
2016-08-11T08:50:27.898Z,975.27
2016-08-11T08:51:27.906Z,975.25
2016-08-11T08:52:27.915Z,975.18
2016-08-11T08:53:27.923Z,975.2
2016-08-11T08:54:27.931Z,975.28
2016-08-11T08:55:27.934Z,975.28
2016-08-11T08:56:27.943Z,975.28
2016-08-11T08:57:27.951Z,975.26
2016-08-11T08:58:27.959Z,975.25
2016-08-11T09:00:27.970Z,975.23
2016-08-11T09:01:27.981Z,975.22
2016-08-11T09:02:27.987Z,975.19
2016-08-11T09:03:27.990Z,975.14
2016-08-11T09:04:27.999Z,975.16
2016-08-11T09:05:28.006Z,975.16
2016-08-11T09:06:28.011Z,975.16
2016-08-11T09:07:28.019Z,975.19
2016-08-11T09:08:28.026Z,975.2
2016-08-11T09:09:28.031Z,975.21
2016-08-11T09:10:28.039Z,975.24
2016-08-11T09:11:28.043Z,975.21
2016-08-11T09:12:28.051Z,975.22
2016-08-11T09:13:28.059Z,975.2
2016-08-11T09:15:28.071Z,975.19
2016-08-11T09:16:28.075Z,975.2
2016-08-11T09:17:28.083Z,975.22
2016-08-11T09:18:28.096Z,975.2
2016-08-11T09:19:28.095Z,975.26
2016-08-11T09:20:28.099Z,975.27
2016-08-11T09:21:28.107Z,975.26
2016-08-11T09:22:28.110Z,975.26
2016-08-11T09:23:28.120Z,975.3
2016-08-11T09:24:28.123Z,975.28
2016-08-11T09:25:28.131Z,975.26
2016-08-11T09:26:28.135Z,975.24
2016-08-11T09:27:28.143Z,975.24
2016-08-11T09:28:28.147Z,975.21
2016-08-11T09:29:28.151Z,975.24
2016-08-11T09:30:28.160Z,975.17
2016-08-11T09:31:28.163Z,975.2
2016-08-11T09:32:28.171Z,975.21
2016-08-11T09:33:28.175Z,975.18
2016-08-11T09:34:28.180Z,975.15
2016-08-11T09:35:28.188Z,975.12
2016-08-11T09:36:28.192Z,975.12
2016-08-11T09:37:28.196Z,975.1
2016-08-11T09:38:28.206Z,975.13
2016-08-11T09:39:28.208Z,975.13
2016-08-11T09:40:28.216Z,975.07
2016-08-11T09:41:28.219Z,975.08
2016-08-11T09:42:28.224Z,975.07
2016-08-11T09:43:28.228Z,975.09
2016-08-11T09:44:28.236Z,975.09
2016-08-11T09:45:28.239Z,975.09
2016-08-11T09:46:28.244Z,975.08
2016-08-11T09:47:28.249Z,975.08
2016-08-11T09:48:28.256Z,975.07
2016-08-11T09:49:28.261Z,975.02
2016-08-11T09:50:28.265Z,975.01
2016-08-11T09:51:28.268Z,975.04
2016-08-11T09:52:28.276Z,975.03
2016-08-11T09:53:28.281Z,975.07
2016-08-11T09:54:28.284Z,975.07
2016-08-11T09:55:28.289Z,975.04
2016-08-11T09:56:28.292Z,975.06
2016-08-11T09:57:28.300Z,975.02
2016-08-11T09:58:28.300Z,975.03
2016-08-11T09:59:28.308Z,975
2016-08-11T10:00:28.312Z,975.03
2016-08-11T10:01:28.315Z,975.01
2016-08-11T10:02:28.321Z,975.02
2016-08-11T10:03:28.325Z,975.03
2016-08-11T10:04:28.328Z,975.07
2016-08-11T10:05:28.334Z,975.07
2016-08-11T10:06:28.340Z,975.06
2016-08-11T10:07:28.345Z,975.05
2016-08-11T10:08:28.348Z,975.05
2016-08-11T10:09:28.363Z,975.08
2016-08-11T10:10:28.356Z,975.04
2016-08-11T10:11:28.360Z,975.03
2016-08-11T10:12:28.365Z,975.05
2016-08-11T10:13:28.369Z,975.03
2016-08-11T10:14:28.373Z,975.02
2016-08-11T10:15:28.377Z,975.07
2016-08-11T10:16:28.381Z,975.06
2016-08-11T10:17:28.385Z,975.01
2016-08-11T10:18:28.389Z,975.05
2016-08-11T10:19:28.393Z,975.07
2016-08-11T10:20:28.398Z,975.06
2016-08-11T10:21:28.400Z,975.07
2016-08-11T10:22:28.409Z,975.07
2016-08-11T10:23:28.410Z,975.03
2016-08-11T10:24:28.413Z,975.06
2016-08-11T10:25:28.418Z,975.05
2016-08-11T10:26:28.426Z,975.02
2016-08-11T10:27:28.426Z,974.99
2016-08-11T10:28:28.429Z,974.95
2016-08-11T10:29:28.437Z,974.93
2016-08-11T10:30:28.441Z,974.96
2016-08-11T10:31:28.443Z,974.95
2016-08-11T10:32:28.445Z,974.93
2016-08-11T10:33:28.449Z,974.94
2016-08-11T10:34:28.454Z,974.9
2016-08-11T10:35:28.458Z,974.91
2016-08-11T10:36:28.462Z,974.91
2016-08-11T10:37:28.465Z,974.93
2016-08-11T10:38:28.469Z,974.96
2016-08-11T10:39:28.473Z,974.92
2016-08-11T10:40:28.477Z,974.92
2016-08-11T10:41:28.481Z,974.93
2016-08-11T10:42:28.486Z,974.91
2016-08-11T10:43:28.489Z,974.91
2016-08-11T10:44:28.493Z,974.88
2016-08-11T10:45:28.497Z,974.87
2016-08-11T10:46:28.501Z,974.87
2016-08-11T10:47:28.506Z,974.83
2016-08-11T10:48:28.510Z,974.86
2016-08-11T10:49:28.509Z,974.84
2016-08-11T10:50:28.514Z,974.81
2016-08-11T10:51:28.518Z,974.81
2016-08-11T10:52:28.526Z,974.84
2016-08-11T10:53:28.525Z,974.83
2016-08-11T10:54:28.530Z,974.78
2016-08-11T10:55:28.534Z,974.79
2016-08-11T10:56:28.538Z,974.78
2016-08-11T10:57:28.542Z,974.78
2016-08-11T10:58:28.546Z,974.73
2016-08-11T10:59:28.551Z,974.7
2016-08-11T11:00:28.551Z,974.67
2016-08-11T11:01:28.554Z,974.7
2016-08-11T11:02:28.558Z,974.74
2016-08-11T11:03:28.563Z,974.68
2016-08-11T11:04:28.567Z,974.67
2016-08-11T11:05:28.570Z,974.66
2016-08-11T11:06:28.576Z,974.64
2016-08-11T11:07:28.579Z,974.62
2016-08-11T11:08:28.582Z,974.63
2016-08-11T11:09:28.587Z,974.64
2016-08-11T11:10:28.591Z,974.6
2016-08-11T11:11:28.590Z,974.63
2016-08-11T11:12:28.594Z,974.61
2016-08-11T11:13:28.598Z,974.61
2016-08-11T11:14:28.603Z,974.64
2016-08-11T11:15:28.606Z,974.6
2016-08-11T11:16:28.611Z,974.63
2016-08-11T11:17:28.615Z,974.62
2016-08-11T11:18:28.619Z,974.64
2016-08-11T11:19:28.622Z,974.65
2016-08-11T11:20:28.627Z,974.63
2016-08-11T11:21:28.631Z,974.63
2016-08-11T11:22:28.631Z,974.63
2016-08-11T11:23:28.635Z,974.61
2016-08-11T11:24:28.639Z,974.61
2016-08-11T11:25:28.644Z,974.66
2016-08-11T11:26:28.646Z,974.61
2016-08-11T11:27:28.656Z,974.62
2016-08-11T11:28:28.655Z,974.62
2016-08-11T11:29:28.655Z,974.62
2016-08-11T11:30:28.660Z,974.64
2016-08-11T11:31:28.663Z,974.61
2016-08-11T11:32:28.668Z,974.62
2016-08-11T11:33:28.672Z,974.67
2016-08-11T11:34:28.676Z,974.69
2016-08-11T11:35:28.676Z,974.65
2016-08-11T11:36:28.679Z,974.63
2016-08-11T11:37:28.683Z,974.62
2016-08-11T11:38:28.689Z,974.59
2016-08-11T11:39:28.692Z,974.62
2016-08-11T11:40:28.691Z,974.54
2016-08-11T11:41:28.696Z,974.59
2016-08-11T11:42:28.700Z,974.58
2016-08-11T11:43:28.703Z,974.57
2016-08-11T11:44:28.708Z,974.6
2016-08-11T11:45:28.711Z,974.54
2016-08-11T11:46:28.712Z,974.53
2016-08-11T11:47:28.716Z,974.52
2016-08-11T11:48:28.720Z,974.53
2016-08-11T11:49:28.724Z,974.54
2016-08-11T11:50:28.729Z,974.5
2016-08-11T11:51:28.727Z,974.56
2016-08-11T11:52:28.731Z,974.59
2016-08-11T11:53:28.736Z,974.57
2016-08-11T11:54:28.740Z,974.53
2016-08-11T11:55:28.744Z,974.52
2016-08-11T11:56:28.748Z,974.52
2016-08-11T11:57:28.749Z,974.53
2016-08-11T11:58:28.753Z,974.52
2016-08-11T11:59:28.757Z,974.51
2016-08-11T12:00:28.761Z,974.52
2016-08-11T12:01:28.765Z,974.5
2016-08-11T12:02:28.764Z,974.46
2016-08-11T12:03:28.767Z,974.45
2016-08-11T12:04:28.773Z,974.43
2016-08-11T12:05:28.777Z,974.39
2016-08-11T12:06:28.776Z,974.41
2016-08-11T12:07:28.781Z,974.38
2016-08-11T12:08:28.785Z,974.39
2016-08-11T12:09:28.789Z,974.34
2016-08-11T12:10:28.789Z,974.36
2016-08-11T12:11:28.793Z,974.35
2016-08-11T12:12:28.798Z,974.4
2016-08-11T12:13:28.801Z,974.42
2016-08-11T12:14:28.805Z,974.37
2016-08-11T12:15:28.805Z,974.39
2016-08-11T12:16:28.808Z,974.39
2016-08-11T12:17:28.813Z,974.39
2016-08-11T12:18:28.816Z,974.4
2016-08-11T12:19:28.820Z,974.36
2016-08-11T12:20:28.821Z,974.39
2016-08-11T12:21:28.825Z,974.35
2016-08-11T12:22:28.829Z,974.37
2016-08-11T12:23:28.833Z,974.4
2016-08-11T12:24:28.834Z,974.41
2016-08-11T12:25:28.837Z,974.41
2016-08-11T12:26:28.842Z,974.39
2016-08-11T12:27:28.849Z,974.43
2016-08-11T12:28:28.845Z,974.38
2016-08-11T12:29:28.849Z,974.38
2016-08-11T12:30:28.853Z,974.41
2016-08-11T12:31:28.852Z,974.43
2016-08-11T12:32:28.858Z,974.37
2016-08-11T12:33:28.862Z,974.36
2016-08-11T12:34:28.866Z,974.38
2016-08-11T12:35:28.866Z,974.33
2016-08-11T12:36:28.869Z,974.33
2016-08-11T12:37:28.874Z,974.29
2016-08-11T12:38:28.877Z,974.33
2016-08-11T12:39:28.877Z,974.32
2016-08-11T12:40:28.882Z,974.38
2016-08-11T12:41:28.886Z,974.35
2016-08-11T12:42:28.885Z,974.37
2016-08-11T12:43:28.890Z,974.39